Lampang, Thailand
Current Conditions -  °F | °C
As of 4:00 PM on Monday 24 Nov 2014 (Local Time) from VTCL Reporting Station
Few Clouds Few Clouds  
Wind Chill: 88°   Ceiling: Unl
Heat Index: 88°   Visibility: 6mi
Dew Point: 63°   Wind: 0mph
Humidity: 43%   Direction: NA
Pressure: 29.85"   Gusts: NA
Location:  18.29°N, 99.48°E
Report Text: VTCL 240900Z 00000KT 9999 FEW025 31/17 Q1011 A2986INFO: L
Loading
Personal Weather Stations






























Interactive Weather Map New forecast layout! Learn more

10-Day Weather Forecast

Advertisements
Track Severe Weather on mobile